KYNG/YNG METAR and TAF weather

Enter ICAO airport designator
Station Type Date Time Source
KYNG METAR 2020/04/06 14:51 UTC NOAA

KYNG 061451Z 07004KT 10SM FEW250 08/M01 A3016 RMK AO2 SLP219 T00831006 58001


Station Type Date Time Source
KYNG Decoded METAR 2020/04/06 14:51 UTC NOAA

YOUNGSTOWN-WARREN REG AIRPRT, OH, United States (KYNG) 41-15N 080-40W 360M
Apr 06, 2020 - 10:51 AM EDT / 2020.04.06 1451 UTC
Wind: from the ENE (070 degrees) at 5 MPH (4 KT):0
Visibility: 10 mile(s):0
Sky conditions: mostly clear
Temperature: 46.9 F (8.3 C)
Dew Point: 30.9 F (-0.6 C)
Relative Humidity: 53%
Pressure (altimeter): 30.16 in. Hg (1021 hPa)
Pressure tendency: 0.00 inches (0.1 hPa) lower than three hours ago
ob: KYNG 061451Z 07004KT 10SM FEW250 08/M01 A3016 RMK AO2 SLP219 T00831006 58001
cycle: 15

Station Type Date Time Source
KYNG TAF 2020/04/06 12:22 UTC NOAA

TAF KYNG 061120Z 0612/0712 VRB03KT P6SM SKC
FM070000 VRB03KT P6SM BKN120
FM070600 VRB03KT P6SM OVC050
FM071000 VRB03KT P6SM VCSH OVC025

Example: see airport list